Time;durP1;ratioP1;P1;durP2;ratioP2;P2;SDS_P1;SDS_P2;PMS_P1;PMS_P2;Temp;Humidity;BMP_temperature;BMP_pressure;BME280_temperature;BME280_humidity;BME280_pressure;Samples;Min_cycle;Max_cycle;Signal;HPM_P1;HPM_P2
2021/09/01 00:00:25;;;;;;;19.67;18.13;;;;;;;13.26;100.00;98788.19;2089886;28;20309;-72
2021/09/01 00:01:27;;;;;;;19.30;17.70;;;;;;;13.26;100.00;98792.75;2089164;28;20241;-73
2021/09/01 00:02:29;;;;;;;19.23;17.80;;;;;;;13.27;100.00;98791.66;2089181;28;20325;-73
2021/09/01 00:03:30;;;;;;;18.73;17.33;;;;;;;13.23;100.00;98790.72;2089949;28;20760;-73
2021/09/01 00:04:31;;;;;;;19.58;18.05;;;;;;;13.23;100.00;98785.38;2090156;28;20253;-73
2021/09/01 00:05:33;;;;;;;19.67;18.17;;;;;;;13.26;100.00;98787.41;2089986;28;20238;-73
2021/09/01 00:06:33;;;;;;;20.10;18.55;;;;;;;13.24;100.00;98794.97;2089377;28;20223;-73
2021/09/01 00:07:35;;;;;;;20.67;19.07;;;;;;;13.20;100.00;98789.47;2080850;28;20705;-73
2021/09/01 00:08:35;;;;;;;20.15;18.75;;;;;;;13.21;100.00;98792.94;2089112;28;20314;-73
2021/09/01 00:09:38;;;;;;;20.27;18.77;;;;;;;13.20;100.00;98794.03;2089929;28;20227;-73
2021/09/01 00:10:39;;;;;;;19.98;18.48;;;;;;;13.18;100.00;98801.56;2089525;28;20233;-73
2021/09/01 00:11:41;;;;;;;20.20;18.40;;;;;;;13.20;100.00;98804.75;2089293;28;20257;-72
2021/09/01 00:12:43;;;;;;;19.92;18.35;;;;;;;13.20;100.00;98802.06;2089199;28;20227;-73
2021/09/01 00:13:44;;;;;;;19.52;18.02;;;;;;;13.23;100.00;98799.56;2090021;28;20295;-73
2021/09/01 00:14:45;;;;;;;19.83;18.17;;;;;;;13.20;100.00;98799.38;2089895;28;20219;-73
2021/09/01 00:15:46;;;;;;;19.67;18.17;;;;;;;13.21;100.00;98796.41;2089862;28;20218;-73
2021/09/01 00:16:48;;;;;;;19.40;17.90;;;;;;;13.19;100.00;98798.59;2089815;28;20294;-73
2021/09/01 00:17:50;;;;;;;19.90;18.40;;;;;;;13.16;100.00;98801.13;2089083;28;20306;-73
2021/09/01 00:18:51;;;;;;;19.92;18.33;;;;;;;13.16;100.00;98798.44;2081085;28;20215;-73
2021/09/01 00:19:53;;;;;;;20.33;18.50;;;;;;;13.17;100.00;98805.38;2088770;28;20301;-73
2021/09/01 00:20:53;;;;;;;20.05;18.45;;;;;;;13.18;100.00;98801.56;2089758;28;20234;-73
2021/09/01 00:21:56;;;;;;;20.40;18.70;;;;;;;13.17;100.00;98806.16;2089802;28;20223;-73
2021/09/01 00:22:57;;;;;;;19.92;18.42;;;;;;;13.19;100.00;98805.81;2089894;28;20282;-73
2021/09/01 00:23:58;;;;;;;20.20;18.50;;;;;;;13.15;100.00;98807.59;2089260;28;20232;-74
2021/09/01 00:24:59;;;;;;;19.58;18.08;;;;;;;13.16;100.00;98809.94;2089025;28;20223;-73
2021/09/01 00:26:00;;;;;;;19.83;18.43;;;;;;;13.15;100.00;98815.63;2089175;28;20660;-73
2021/09/01 00:27:01;;;;;;;20.15;18.65;;;;;;;13.14;100.00;98814.06;2089037;28;20740;-72
2021/09/01 00:28:03;;;;;;;20.30;18.80;;;;;;;13.15;100.00;98819.09;2089781;28;20551;-73
2021/09/01 00:29:04;;;;;;;20.40;18.80;;;;;;;13.13;100.00;98815.16;2089135;28;20291;-73
2021/09/01 00:30:07;;;;;;;21.38;19.70;;;;;;;13.11;100.00;98814.66;2088977;28;20608;-73
2021/09/01 00:31:07;;;;;;;21.55;19.95;;;;;;;13.10;100.00;98816.56;2088591;28;20245;-73
2021/09/01 00:32:09;;;;;;;22.23;20.43;;;;;;;13.07;100.00;98819.09;2088997;28;20225;-73
2021/09/01 00:33:11;;;;;;;22.23;20.63;;;;;;;13.04;100.00;98817.06;2089535;28;20250;-73
2021/09/01 00:34:13;;;;;;;23.88;22.10;;;;;;;12.99;100.00;98808.06;2089743;28;20237;-73
2021/09/01 00:35:13;;;;;;;25.02;23.33;;;;;;;13.06;100.00;98820.22;2088891;28;20238;-73
2021/09/01 00:36:15;;;;;;;24.40;22.60;;;;;;;13.01;100.00;98819.25;2088337;28;20223;-72
2021/09/01 00:37:16;;;;;;;24.38;22.35;;;;;;;13.01;100.00;98819.25;2089010;28;20258;-73
2021/09/01 00:38:17;;;;;;;23.57;21.87;;;;;;;13.00;100.00;98815.00;2089061;28;20214;-73
2021/09/01 00:39:18;;;;;;;22.70;21.10;;;;;;;12.97;100.00;98818.31;2089732;28;20302;-73
2021/09/01 00:40:20;;;;;;;22.77;21.17;;;;;;;12.94;100.00;98824.31;2089083;28;20700;-72
2021/09/01 00:41:21;;;;;;;23.13;21.38;;;;;;;12.89;100.00;98824.47;2089027;28;20295;-73
2021/09/01 00:42:23;;;;;;;22.48;20.77;;;;;;;12.92;100.00;98829.19;2088488;28;20223;-74
2021/09/01 00:43:24;;;;;;;23.00;21.15;;;;;;;12.90;100.00;98828.72;2080179;28;20231;-73
2021/09/01 00:44:27;;;;;;;22.83;20.93;;;;;;;12.91;100.00;98826.84;2088800;28;20294;-73
2021/09/01 00:45:27;;;;;;;23.13;21.52;;;;;;;12.91;100.00;98829.50;2089639;28;20218;-72
2021/09/01 00:46:29;;;;;;;22.73;20.93;;;;;;;12.91;100.00;98837.53;2089639;28;20231;-73
2021/09/01 00:47:30;;;;;;;22.15;20.35;;;;;;;12.90;100.00;98828.72;2088813;28;20258;-73
2021/09/01 00:48:33;;;;;;;21.80;20.20;;;;;;;12.87;100.00;98826.69;2088997;28;20229;-73
2021/09/01 00:49:33;;;;;;;22.38;20.67;;;;;;;12.86;100.00;98841.19;2088838;28;20358;-73
2021/09/01 00:50:35;;;;;;;21.87;20.17;;;;;;;12.88;100.00;98828.25;2088804;28;20230;-72
2021/09/01 00:51:36;;;;;;;22.00;20.33;;;;;;;12.88;100.00;98835.50;2088679;28;20739;-73
2021/09/01 00:52:39;;;;;;;21.73;20.10;;;;;;;12.87;100.00;98833.94;2088886;28;20655;-73
2021/09/01 00:53:43;;;;;;;21.30;19.70;;;;;;;12.85;100.00;98830.78;2089181;28;20271;-73
2021/09/01 00:54:45;;;;;;;21.33;19.75;;;;;;;12.84;100.00;98834.56;2089561;28;20744;-73
2021/09/01 00:55:47;;;;;;;21.08;19.48;;;;;;;12.83;100.00;98828.41;2089558;28;20313;-72
2021/09/01 00:56:51;;;;;;;21.85;20.25;;;;;;;12.83;100.00;98833.75;2089344;28;20222;-73
2021/09/01 00:57:52;;;;;;;20.98;19.27;;;;;;;12.84;100.00;98829.19;2089665;28;20233;-74
2021/09/01 00:58:53;;;;;;;21.60;19.70;;;;;;;12.83;100.00;98833.75;2088476;28;20248;-72
2021/09/01 00:59:56;;;;;;;21.90;20.20;;;;;;;12.82;100.00;98831.41;2080164;28;20545;-73
2021/09/01 01:01:14;;;;;;;22.67;20.77;;;;;;;12.81;100.00;98835.19;2088876;28;20321;-72
2021/09/01 01:02:16;;;;;;;22.88;21.17;;;;;;;12.83;100.00;98833.75;2089088;28;20215;-73
2021/09/01 01:03:17;;;;;;;22.60;20.83;;;;;;;12.83;100.00;98844.47;2089496;28;20223;-72
2021/09/01 01:04:19;;;;;;;22.53;20.73;;;;;;;12.82;100.00;98842.91;2089549;28;20218;-72
2021/09/01 01:05:20;;;;;;;21.45;19.83;;;;;;;12.80;100.00;98838.97;2089480;28;20222;-72
2021/09/01 01:06:23;;;;;;;20.77;19.10;;;;;;;12.84;100.00;98838.00;2089466;28;20223;-73
2021/09/01 01:07:24;;;;;;;20.90;19.30;;;;;;;12.81;100.00;98841.34;2089136;28;20223;-73
2021/09/01 01:08:27;;;;;;;20.63;19.00;;;;;;;12.79;100.00;98843.53;2089485;28;20272;-72
2021/09/01 01:09:28;;;;;;;20.48;19.02;;;;;;;12.79;100.00;98832.06;2089457;28;20226;-73
2021/09/01 01:10:29;;;;;;;20.35;18.85;;;;;;;12.81;100.00;98848.59;2089502;28;20264;-73
2021/09/01 01:11:31;;;;;;;20.20;18.70;;;;;;;12.79;100.00;98838.19;2089485;28;20231;-73
2021/09/01 01:12:32;;;;;;;19.83;18.23;;;;;;;12.78;100.00;98847.31;2089380;28;20309;-73
2021/09/01 01:13:34;;;;;;;19.67;18.10;;;;;;;12.82;100.00;98847.47;2088717;28;20222;-72
2021/09/01 01:14:36;;;;;;;19.90;18.40;;;;;;;12.84;100.00;98838.00;2088658;28;20711;-72
2021/09/01 01:15:38;;;;;;;20.40;18.90;;;;;;;12.82;100.00;98842.13;2089022;28;20234;-73
2021/09/01 01:16:38;;;;;;;19.67;18.17;;;;;;;12.80;100.00;98847.00;2088646;28;20774;-73
2021/09/01 01:17:40;;;;;;;19.30;17.80;;;;;;;12.80;100.00;98845.13;2080267;28;20704;-73
2021/09/01 01:18:41;;;;;;;19.73;18.35;;;;;;;12.82;100.00;98842.91;2088743;28;20310;-73
2021/09/01 01:19:45;;;;;;;20.27;18.87;;;;;;;12.83;100.00;98849.84;2089372;28;20288;-73
2021/09/01 01:20:47;;;;;;;20.13;18.63;;;;;;;12.83;100.00;98843.69;2089176;28;20250;-72
2021/09/01 01:21:48;;;;;;;20.20;18.70;;;;;;;12.85;100.00;98852.97;2088595;28;20306;-73
2021/09/01 01:22:50;;;;;;;20.60;19.00;;;;;;;12.88;100.00;98848.91;2088526;28;20309;-73
2021/09/01 01:23:52;;;;;;;19.38;18.08;;;;;;;12.90;100.00;98849.38;2089323;28;20715;-73
2021/09/01 01:24:59;;;;;;;19.40;17.80;;;;;;;12.90;100.00;98855.50;2088124;28;20219;-73
2021/09/01 01:26:01;;;;;;;18.83;17.42;;;;;;;12.93;100.00;98849.50;2088683;28;20225;-73
2021/09/01 01:27:03;;;;;;;18.45;17.15;;;;;;;12.87;100.00;98856.16;2088499;28;20233;-73
2021/09/01 01:28:05;;;;;;;18.20;16.95;;;;;;;12.90;100.00;98850.16;2088348;28;20314;-73
2021/09/01 01:29:09;;;;;;;18.58;17.27;;;;;;;12.87;100.00;98855.34;2088582;28;20215;-73
2021/09/01 01:30:14;;;;;;;18.30;16.90;;;;;;;12.89;100.00;98847.78;2088854;28;20222;-73
2021/09/01 01:31:16;;;;;;;19.48;17.88;;;;;;;12.92;100.00;98847.16;2089402;28;20226;-73
2021/09/01 01:32:17;;;;;;;19.60;18.00;;;;;;;12.93;100.00;98848.72;2089257;28;20326;-73
2021/09/01 01:33:18;;;;;;;19.10;17.80;;;;;;;12.90;100.00;98847.47;2088498;28;20226;-73
2021/09/01 01:34:19;;;;;;;18.38;17.17;;;;;;;12.87;100.00;98850.00;2088437;28;20681;-73
2021/09/01 01:35:24;;;;;;;19.70;18.27;;;;;;;12.86;100.00;98859.94;2080256;28;20574;-73
2021/09/01 01:36:26;;;;;;;19.20;17.90;;;;;;;12.89;100.00;98864.66;2088215;28;20226;-73
2021/09/01 01:37:27;;;;;;;19.63;18.13;;;;;;;12.87;100.00;98850.78;2088632;28;20242;-72
2021/09/01 01:38:31;;;;;;;19.27;18.00;;;;;;;12.95;100.00;98858.03;2088503;28;20237;-73
2021/09/01 01:39:31;;;;;;;19.00;17.60;;;;;;;12.89;100.00;98858.50;2089261;28;20219;-72
2021/09/01 01:40:33;;;;;;;18.40;17.10;;;;;;;12.88;100.00;98856.94;2089199;28;20305;-73
2021/09/01 01:41:35;;;;;;;18.17;16.83;;;;;;;12.89;100.00;98863.84;2089159;28;20249;-73
2021/09/01 01:42:39;;;;;;;18.92;17.73;;;;;;;12.87;100.00;98866.84;2089046;28;20222;-73
2021/09/01 01:43:44;;;;;;;18.88;17.58;;;;;;;12.85;100.00;98852.97;2088727;28;20258;-72
2021/09/01 01:44:45;;;;;;;18.98;17.48;;;;;;;12.84;100.00;98859.44;2089167;28;20242;-73
2021/09/01 01:45:46;;;;;;;19.75;18.45;;;;;;;12.80;100.00;98853.16;2089154;28;20314;-72
2021/09/01 01:46:48;;;;;;;19.77;18.37;;;;;;;12.83;100.00;98863.22;2089168;28;20222;-73
2021/09/01 01:47:49;;;;;;;18.23;17.02;;;;;;;12.83;100.00;98857.06;2088541;28;20692;-73
2021/09/01 01:48:50;;;;;;;18.30;17.00;;;;;;;12.82;100.00;98860.88;2088069;28;20218;-72
2021/09/01 01:49:51;;;;;;;18.42;17.00;;;;;;;12.82;100.00;98856.28;2080200;28;20281;-72
2021/09/01 01:50:52;;;;;;;17.90;16.70;;;;;;;12.86;100.00;98857.25;2088119;28;20223;-73
2021/09/01 01:51:53;;;;;;;18.55;17.15;;;;;;;12.84;100.00;98864.00;2089060;28;20629;-74
2021/09/01 01:52:54;;;;;;;17.63;16.40;;;;;;;12.85;100.00;98857.53;2089096;28;20218;-73
2021/09/01 01:53:55;;;;;;;17.90;16.60;;;;;;;12.88;100.00;98856.94;2089035;28;20306;-73
2021/09/01 01:54:57;;;;;;;18.53;16.97;;;;;;;12.88;100.00;98860.41;2088360;28;20219;-72
2021/09/01 01:55:59;;;;;;;19.33;17.90;;;;;;;12.87;100.00;98856.16;2088262;28;20219;-73
2021/09/01 01:57:01;;;;;;;20.13;18.63;;;;;;;12.86;100.00;98857.25;2088386;28;20226;-73
2021/09/01 01:58:03;;;;;;;20.55;19.15;;;;;;;12.83;100.00;98855.19;2088515;28;20271;-73
2021/09/01 01:59:04;;;;;;;21.55;19.85;;;;;;;12.77;100.00;98845.75;2089109;28;20309;-73
2021/09/01 02:00:07;;;;;;;21.20;19.70;;;;;;;12.78;100.00;98852.69;2089079;28;20234;-72
2021/09/01 02:01:13;;;;;;;21.95;20.17;;;;;;;12.77;100.00;98861.81;2088740;28;20691;-73
2021/09/01 02:02:13;;;;;;;21.95;20.38;;;;;;;12.76;100.00;98854.09;2089008;28;20218;-73
2021/09/01 02:03:15;;;;;;;21.47;20.07;;;;;;;12.77;100.00;98853.78;2088931;28;20223;-73
2021/09/01 02:04:16;;;;;;;21.55;20.10;;;;;;;12.77;100.00;98856.47;2088321;28;20705;-73
2021/09/01 02:05:18;;;;;;;20.50;19.10;;;;;;;12.75;100.00;98861.31;2088362;28;20222;-72
2021/09/01 02:06:18;;;;;;;21.65;19.90;;;;;;;12.77;100.00;98845.75;2089080;28;20666;-73
2021/09/01 02:07:20;;;;;;;20.27;18.63;;;;;;;12.79;100.00;98856.16;2089078;28;20222;-73
2021/09/01 02:08:21;;;;;;;19.95;18.55;;;;;;;12.70;100.00;98858.81;2088163;28;20569;-72
2021/09/01 02:09:22;;;;;;;20.60;18.90;;;;;;;12.67;100.00;98860.22;2087962;28;20301;-74
2021/09/01 02:10:24;;;;;;;21.35;19.70;;;;;;;12.68;100.00;98852.97;2088150;28;20223;-73
2021/09/01 02:11:25;;;;;;;21.75;19.88;;;;;;;12.65;100.00;98850.94;2088283;28;20237;-73
2021/09/01 02:12:29;;;;;;;20.63;19.20;;;;;;;12.65;100.00;98856.28;2089012;28;20231;-74
2021/09/01 02:13:31;;;;;;;21.45;19.95;;;;;;;12.60;100.00;98859.13;2088130;28;20313;-73
2021/09/01 02:14:31;;;;;;;20.33;18.98;;;;;;;12.59;100.00;98852.19;2080126;28;20277;-73
2021/09/01 02:15:33;;;;;;;20.93;19.53;;;;;;;12.58;100.00;98854.06;2088240;28;20250;-73
2021/09/01 02:16:35;;;;;;;20.92;19.27;;;;;;;12.53;100.00;98850.78;2088860;28;20246;-72
2021/09/01 02:17:36;;;;;;;20.63;19.13;;;;;;;12.59;100.00;98849.50;2088786;28;20234;-73
2021/09/01 02:18:37;;;;;;;20.90;19.20;;;;;;;12.60;100.00;98856.47;2088660;28;20238;-74
2021/09/01 02:19:38;;;;;;;20.13;18.80;;;;;;;12.55;100.00;98853.94;2088907;28;20235;-73
2021/09/01 02:20:41;;;;;;;20.73;18.87;;;;;;;12.53;100.00;98856.13;2088955;28;20218;-73
2021/09/01 02:21:41;;;;;;;19.20;18.00;;;;;;;12.54;100.00;98855.81;2088134;28;22467;-73
2021/09/01 02:22:43;;;;;;;19.07;17.77;;;;;;;12.61;100.00;98866.06;2088141;28;20237;-73
2021/09/01 02:23:44;;;;;;;19.45;18.20;;;;;;;12.58;100.00;98858.63;2088813;28;20215;-73
2021/09/01 02:24:46;;;;;;;20.30;18.80;;;;;;;12.54;100.00;98861.16;2088403;28;20221;-73
2021/09/01 02:25:47;;;;;;;19.05;17.80;;;;;;;12.58;100.00;98867.44;2088235;28;20306;-73
2021/09/01 02:26:48;;;;;;;20.05;18.55;;;;;;;12.57;100.00;98865.88;2087680;28;20222;-73
2021/09/01 02:27:51;;;;;;;19.73;18.43;;;;;;;12.61;100.00;98866.06;2088217;28;20218;-73
2021/09/01 02:28:51;;;;;;;19.40;18.00;;;;;;;12.58;100.00;98870.13;2087591;28;20360;-74
2021/09/01 02:29:53;;;;;;;19.13;17.83;;;;;;;12.62;100.00;98867.63;2079771;28;20219;-73
2021/09/01 02:30:53;;;;;;;19.30;17.90;;;;;;;12.61;100.00;98869.53;2079752;28;20239;-72
2021/09/01 02:31:55;;;;;;;19.17;17.87;;;;;;;12.61;100.00;98866.06;2087986;28;20226;-73
2021/09/01 02:32:56;;;;;;;18.45;17.25;;;;;;;12.56;100.00;98867.00;2088812;28;20364;-73
2021/09/01 02:33:57;;;;;;;19.43;17.90;;;;;;;12.54;100.00;98865.72;2088876;28;20234;-73
2021/09/01 02:34:58;;;;;;;19.10;17.80;;;;;;;12.56;100.00;98868.88;2088889;28;20218;-74
2021/09/01 02:36:00;;;;;;;18.97;17.77;;;;;;;12.57;100.00;98865.88;2088865;28;20301;-73
2021/09/01 02:37:00;;;;;;;18.83;17.42;;;;;;;12.53;100.00;98867.63;2088747;28;20242;-73
2021/09/01 02:38:04;;;;;;;19.70;18.27;;;;;;;12.56;100.00;98872.34;2088719;28;20228;-73
2021/09/01 02:39:04;;;;;;;18.90;17.50;;;;;;;12.53;100.00;98872.97;2088673;28;20292;-73
2021/09/01 02:40:07;;;;;;;18.80;17.60;;;;;;;12.53;100.00;98869.50;2088729;28;20242;-72
2021/09/01 02:41:07;;;;;;;18.73;17.42;;;;;;;12.53;100.00;98864.94;2087596;28;20249;-73
2021/09/01 02:42:09;;;;;;;19.50;18.13;;;;;;;12.52;100.00;98876.75;2079953;28;20227;-73
2021/09/01 02:43:12;;;;;;;19.23;17.92;;;;;;;12.58;100.00;98880.06;2088010;28;20222;-73
2021/09/01 02:44:13;;;;;;;19.23;17.92;;;;;;;12.54;100.00;98879.91;2088698;28;20301;-73
2021/09/01 02:45:16;;;;;;;19.80;18.30;;;;;;;12.53;100.00;98869.50;2087901;28;20289;-73
2021/09/01 02:46:17;;;;;;;19.58;18.17;;;;;;;12.53;100.00;98878.31;2088075;28;20230;-73
2021/09/01 02:47:19;;;;;;;19.83;18.30;;;;;;;12.55;100.00;98872.66;2088241;28;20218;-73
2021/09/01 02:48:19;;;;;;;20.85;19.20;;;;;;;12.57;100.00;98881.16;2088136;28;20232;-73
2021/09/01 02:49:21;;;;;;;19.57;18.27;;;;;;;12.57;100.00;98873.13;2087936;28;20244;-72
2021/09/01 02:50:22;;;;;;;19.70;18.40;;;;;;;12.61;100.00;98871.41;2087679;28;20665;-73
2021/09/01 02:51:23;;;;;;;20.30;18.90;;;;;;;12.55;100.00;98873.44;2088767;28;20223;-73
2021/09/01 02:52:25;;;;;;;20.30;19.00;;;;;;;12.57;100.00;98878.47;2088622;28;20215;-73
2021/09/01 02:53:26;;;;;;;19.70;18.40;;;;;;;12.62;100.00;98878.34;2088607;28;20238;-73
2021/09/01 02:54:27;;;;;;;19.17;17.88;;;;;;;12.63;100.00;98882.59;2088662;28;20318;-73
2021/09/01 02:55:29;;;;;;;19.30;18.00;;;;;;;12.59;100.00;98881.63;2088707;28;20226;-73
2021/09/01 02:56:29;;;;;;;18.55;17.33;;;;;;;12.62;100.00;98889.03;2088059;28;20700;-74
2021/09/01 02:57:31;;;;;;;19.43;18.03;;;;;;;12.56;100.00;98885.72;2088000;28;20234;-73
2021/09/01 02:58:34;;;;;;;19.98;18.67;;;;;;;12.54;100.00;98879.13;2088821;28;20257;-73
2021/09/01 02:59:34;;;;;;;19.73;18.40;;;;;;;12.53;100.00;98878.31;2088299;28;20310;-73
2021/09/01 03:00:36;;;;;;;20.53;19.03;;;;;;;12.51;100.00;98880.53;2088613;28;20233;-73
2021/09/01 03:01:37;;;;;;;21.00;19.60;;;;;;;12.53;100.00;98877.53;2088201;28;20241;-74
2021/09/01 03:02:38;;;;;;;20.60;19.20;;;;;;;12.50;100.00;98880.81;2088622;28;20226;-74
2021/09/01 03:03:39;;;;;;;20.25;18.85;;;;;;;12.51;100.00;98885.06;2087760;28;20261;-72
2021/09/01 03:04:41;;;;;;;20.60;19.20;;;;;;;12.48;100.00;98886.50;2087987;28;20234;-73
2021/09/01 03:05:41;;;;;;;21.20;19.67;;;;;;;12.48;100.00;98885.72;2087888;28;20250;-73
2021/09/01 03:06:43;;;;;;;21.00;19.40;;;;;;;12.53;100.00;98885.56;2087995;28;20242;-73
2021/09/01 03:07:43;;;;;;;19.42;18.13;;;;;;;12.51;100.00;98893.09;2087843;28;20246;-73
2021/09/01 03:08:45;;;;;;;20.07;18.77;;;;;;;12.50;100.00;98878.16;2088008;28;20222;-73
2021/09/01 03:09:45;;;;;;;20.50;19.20;;;;;;;12.47;100.00;98884.13;2087785;28;20320;-73
2021/09/01 03:10:47;;;;;;;21.00;19.60;;;;;;;12.51;100.00;98885.06;2079686;28;20234;-72
2021/09/01 03:11:48;;;;;;;22.08;20.48;;;;;;;12.45;100.00;98884.44;2088202;28;20230;-73
2021/09/01 03:12:49;;;;;;;20.70;19.00;;;;;;;12.47;100.00;98884.13;2087842;28;20226;-73
2021/09/01 03:13:51;;;;;;;20.38;19.00;;;;;;;12.45;100.00;98887.91;2088691;28;20225;-73
2021/09/01 03:14:53;;;;;;;20.35;18.85;;;;;;;12.45;100.00;98893.25;2088236;28;20222;-73
2021/09/01 03:15:53;;;;;;;20.75;19.00;;;;;;;12.39;100.00;98891.03;2088538;28;20313;-74
2021/09/01 03:16:55;;;;;;;19.47;18.17;;;;;;;12.39;100.00;98891.81;2088597;28;20231;-72
2021/09/01 03:17:56;;;;;;;20.15;18.63;;;;;;;12.36;100.00;98889.78;2087611;28;20295;-73
2021/09/01 03:18:57;;;;;;;19.63;18.27;;;;;;;12.35;100.00;98893.56;2079586;28;20231;-73
2021/09/01 03:19:59;;;;;;;19.60;18.23;;;;;;;12.39;100.00;98894.50;2079623;28;20230;-73
2021/09/01 03:20:59;;;;;;;19.55;18.17;;;;;;;12.40;100.00;98893.41;2088006;28;20245;-73
2021/09/01 03:22:01;;;;;;;20.30;18.90;;;;;;;12.39;100.00;98899.84;2088645;28;20705;-73
2021/09/01 03:23:03;;;;;;;20.17;18.67;;;;;;;12.38;100.00;98898.28;2088557;28;20242;-73
2021/09/01 03:24:04;;;;;;;20.92;19.38;;;;;;;12.32;100.00;98899.53;2088517;28;20227;-73
2021/09/01 03:25:07;;;;;;;20.00;18.60;;;;;;;12.32;100.00;98898.72;2088557;28;20233;-73
2021/09/01 03:26:07;;;;;;;19.70;18.30;;;;;;;12.41;100.00;98896.84;2088265;28;20255;-73
2021/09/01 03:27:09;;;;;;;20.30;18.80;;;;;;;12.39;100.00;98897.19;2088618;28;20226;-73
2021/09/01 03:28:10;;;;;;;19.80;18.40;;;;;;;12.36;100.00;98895.13;2087642;28;20231;-73
2021/09/01 03:29:13;;;;;;;20.00;18.60;;;;;;;12.38;100.00;98898.28;2087846;28;20298;-74
2021/09/01 03:30:13;;;;;;;19.80;18.50;;;;;;;12.36;100.00;98900.50;2088032;28;20314;-73
2021/09/01 03:31:15;;;;;;;19.93;18.53;;;;;;;12.33;100.00;98901.09;2087800;28;20221;-73
2021/09/01 03:32:16;;;;;;;19.67;18.27;;;;;;;12.31;100.00;98897.94;2087577;28;20226;-73
2021/09/01 03:33:17;;;;;;;19.73;18.23;;;;;;;12.31;100.00;98903.28;2087707;28;20220;-73
2021/09/01 03:34:18;;;;;;;19.88;18.58;;;;;;;12.32;100.00;98904.88;2087842;28;20226;-73
2021/09/01 03:35:19;;;;;;;19.83;18.53;;;;;;;12.33;100.00;98902.97;2088490;28;20227;-73
2021/09/01 03:36:21;;;;;;;19.60;18.30;;;;;;;12.33;100.00;98905.66;2088425;28;20701;-73
2021/09/01 03:37:23;;;;;;;20.27;18.98;;;;;;;12.28;100.00;98914.63;2088121;28;20705;-74
2021/09/01 03:38:24;;;;;;;20.40;19.00;;;;;;;12.25;100.00;98904.56;2088476;28;20230;-73
2021/09/01 03:39:25;;;;;;;20.77;19.38;;;;;;;12.25;100.00;98903.75;2088498;28;20227;-73
2021/09/01 03:40:27;;;;;;;21.80;20.40;;;;;;;12.24;100.00;98913.66;2087711;28;20218;-73
2021/09/01 03:41:27;;;;;;;21.90;20.30;;;;;;;12.27;100.00;98913.06;2087847;28;20218;-73
2021/09/01 03:42:29;;;;;;;21.93;20.33;;;;;;;12.29;100.00;98918.88;2088468;28;20233;-73
2021/09/01 03:43:31;;;;;;;22.52;21.02;;;;;;;12.28;100.00;98916.50;2088468;28;20227;-73
2021/09/01 03:44:34;;;;;;;22.23;20.75;;;;;;;12.25;100.00;98912.59;2088313;28;20577;-73
2021/09/01 03:45:34;;;;;;;22.05;20.55;;;;;;;12.22;100.00;98910.50;2088569;28;20720;-73
2021/09/01 03:46:36;;;;;;;21.90;20.30;;;;;;;12.24;100.00;98920.91;2088450;28;20574;-73
2021/09/01 03:47:37;;;;;;;22.38;20.88;;;;;;;12.21;100.00;98916.97;2088210;28;20251;-74
2021/09/01 03:48:38;;;;;;;22.50;20.80;;;;;;;12.20;100.00;98920.72;2088482;28;20234;-73
2021/09/01 03:49:39;;;;;;;21.75;19.90;;;;;;;12.19;100.00;98921.06;2088351;28;20229;-73
2021/09/01 03:50:40;;;;;;;20.97;19.37;;;;;;;12.24;100.00;98920.91;2087657;28;20230;-73
2021/09/01 03:51:41;;;;;;;21.05;19.55;;;;;;;12.20;100.00;98920.72;2079370;28;20685;-73
2021/09/01 03:52:43;;;;;;;21.33;19.83;;;;;;;12.24;100.00;98928.91;2087770;28;20584;-73
2021/09/01 03:53:43;;;;;;;22.40;20.90;;;;;;;12.23;100.00;98930.81;2088472;28;20239;-72
2021/09/01 03:54:45;;;;;;;22.67;21.17;;;;;;;12.22;100.00;98928.44;2087952;28;20223;-73
2021/09/01 03:55:46;;;;;;;21.38;19.90;;;;;;;12.20;100.00;98923.41;2087708;28;20239;-73
2021/09/01 03:56:47;;;;;;;21.67;19.60;;;;;;;12.22;100.00;98929.22;2088280;28;20673;-72
2021/09/01 03:57:48;;;;;;;21.10;19.35;;;;;;;12.27;100.00;98929.09;2087736;28;20253;-73
2021/09/01 03:58:50;;;;;;;21.20;19.50;;;;;;;12.21;100.00;98924.97;2087957;28;20223;-74
2021/09/01 03:59:51;;;;;;;22.33;20.70;;;;;;;12.23;100.00;98930.81;2087623;28;20207;-73
2021/09/01 04:00:53;;;;;;;22.50;20.85;;;;;;;12.25;100.00;98939.34;2087464;28;20233;-73
2021/09/01 04:01:54;;;;;;;20.77;19.27;;;;;;;12.25;100.00;98941.19;2087699;28;20229;-73
2021/09/01 04:02:55;;;;;;;20.73;19.33;;;;;;;12.24;100.00;98937.72;2079362;28;20277;-73
2021/09/01 04:03:56;;;;;;;20.80;19.10;;;;;;;12.24;100.00;98934.25;2087641;28;20230;-73
2021/09/01 04:04:57;;;;;;;20.00;18.10;;;;;;;12.25;100.00;98941.19;2087536;28;20226;-73
2021/09/01 04:05:58;;;;;;;20.27;18.73;;;;;;;12.25;100.00;98936.66;2079388;28;20223;-73
2021/09/01 04:07:00;;;;;;;19.30;18.00;;;;;;;12.21;100.00;98934.91;2087683;28;20229;-73
2021/09/01 04:08:00;;;;;;;20.40;18.70;;;;;;;12.22;100.00;98939.16;2088394;28;20253;-73
2021/09/01 04:09:02;;;;;;;20.57;19.07;;;;;;;12.23;100.00;98941.50;2088346;28;20229;-73
2021/09/01 04:10:03;;;;;;;20.83;19.40;;;;;;;12.26;100.00;98942.78;2088616;28;20226;-73
2021/09/01 04:11:06;;;;;;;20.58;19.02;;;;;;;12.23;100.00;98946.84;2088257;28;20299;-74
2021/09/01 04:12:07;;;;;;;21.75;19.52;;;;;;;12.22;100.00;98941.81;2088581;28;20218;-73
2021/09/01 04:13:09;;;;;;;20.80;19.30;;;;;;;12.24;100.00;98940.41;2081071;28;20318;-73
2021/09/01 04:14:09;;;;;;;20.90;19.50;;;;;;;12.23;100.00;98941.50;2089062;28;20305;-72
2021/09/01 04:15:13;;;;;;;21.07;19.67;;;;;;;12.28;100.00;98949.41;2089219;28;20277;-73
2021/09/01 04:16:13;;;;;;;21.30;19.80;;;;;;;12.22;100.00;98941.81;2089069;28;20326;-73
2021/09/01 04:17:15;;;;;;;21.80;20.30;;;;;;;12.22;100.00;98944.50;2089125;28;20230;-73
2021/09/01 04:18:16;;;;;;;21.38;19.98;;;;;;;12.24;100.00;98945.75;2089885;28;20636;-73
2021/09/01 04:19:17;;;;;;;21.67;20.10;;;;;;;12.22;100.00;98942.59;2089908;28;20249;-72
2021/09/01 04:20:19;;;;;;;20.92;19.63;;;;;;;12.29;100.00;98945.63;2089067;28;20246;-72
2021/09/01 04:21:19;;;;;;;21.52;20.13;;;;;;;12.28;100.00;98952.06;2089182;28;20238;-73
2021/09/01 04:22:21;;;;;;;22.40;20.90;;;;;;;12.28;100.00;98953.97;2089950;28;20222;-73
2021/09/01 04:23:21;;;;;;;20.35;18.95;;;;;;;12.25;100.00;98949.22;2089488;28;20249;-74
2021/09/01 04:24:23;;;;;;;20.90;19.50;;;;;;;12.24;100.00;98955.66;2089295;28;20238;-73
2021/09/01 04:25:24;;;;;;;20.95;19.48;;;;;;;12.26;100.00;98958.84;2089099;28;20223;-73
2021/09/01 04:26:25;;;;;;;21.67;19.90;;;;;;;12.27;100.00;98955.84;2089716;28;20744;-73
2021/09/01 04:27:26;;;;;;;20.88;19.48;;;;;;;12.28;100.00;98957.44;2089773;28;20310;-72
2021/09/01 04:28:27;;;;;;;20.73;19.33;;;;;;;12.29;100.00;98959.00;2089026;28;20246;-73
2021/09/01 04:29:28;;;;;;;19.33;17.92;;;;;;;12.32;100.00;98958.38;2089116;28;20309;-73
2021/09/01 04:30:31;;;;;;;19.00;17.60;;;;;;;12.27;100.00;98953.19;2089696;28;20235;-72
2021/09/01 04:31:32;;;;;;;19.20;17.85;;;;;;;12.27;100.00;98961.22;2088962;28;20231;-73
2021/09/01 04:32:33;;;;;;;18.93;17.60;;;;;;;12.27;100.00;98971.13;2089165;28;20305;-73
2021/09/01 04:33:34;;;;;;;19.00;17.60;;;;;;;12.35;100.00;98962.34;2089770;28;20222;-73
2021/09/01 04:34:35;;;;;;;18.77;17.37;;;;;;;12.32;100.00;98971.75;2089674;28;20226;-73
2021/09/01 04:35:37;;;;;;;19.05;17.75;;;;;;;12.29;100.00;98968.91;2089645;28;20577;-73
2021/09/01 04:36:38;;;;;;;19.10;17.60;;;;;;;12.39;100.00;98968.63;2089404;28;20233;-73
2021/09/01 04:37:39;;;;;;;18.73;17.43;;;;;;;12.33;100.00;98970.66;2089024;28;20753;-73
2021/09/01 04:38:40;;;;;;;18.35;17.05;;;;;;;12.31;100.00;98969.38;2080648;28;20230;-74
2021/09/01 04:39:42;;;;;;;18.43;17.13;;;;;;;12.28;100.00;98973.47;2088960;28;20231;-73